createdAt,value
2023-01-26T00:06:03.808Z,40.19
2023-01-26T00:16:06.005Z,40.03
2023-01-26T00:26:07.899Z,39.80
2023-01-26T00:36:09.534Z,39.41
2023-01-26T00:46:11.136Z,39.29
2023-01-26T00:56:14.726Z,39.21
2023-01-26T01:06:16.109Z,38.99
2023-01-26T01:16:17.922Z,38.87
2023-01-26T01:26:19.385Z,38.97
2023-01-26T01:36:20.896Z,38.87
2023-01-26T01:46:32.014Z,39.07
2023-01-26T01:56:33.423Z,39.01
2023-01-26T02:06:47.343Z,39.00
2023-01-26T02:16:48.743Z,39.09
2023-01-26T02:26:50.131Z,39.18
2023-01-26T02:36:58.876Z,39.42
2023-01-26T02:47:00.267Z,39.62
2023-01-26T02:57:01.739Z,39.71
2023-01-26T03:07:03.156Z,39.96
2023-01-26T03:17:04.549Z,40.03
2023-01-26T03:27:25.201Z,40.16
2023-01-26T03:37:26.586Z,40.21
2023-01-26T03:47:46.797Z,40.21
2023-01-26T03:57:48.472Z,39.98
2023-01-26T04:08:08.507Z,39.88
2023-01-26T04:18:28.649Z,39.70
2023-01-26T04:28:30.149Z,39.29
2023-01-26T04:38:31.686Z,39.22
2023-01-26T04:48:33.242Z,39.24
2023-01-26T04:58:34.747Z,39.08
2023-01-26T05:08:36.646Z,39.05
2023-01-26T05:18:38.031Z,38.92
2023-01-26T05:28:39.497Z,38.79
2023-01-26T05:38:40.872Z,38.77
2023-01-26T05:48:42.393Z,38.87
2023-01-26T05:58:43.918Z,38.82
2023-01-26T06:08:45.457Z,38.86
2023-01-26T06:18:50.122Z,38.82
2023-01-26T06:28:52.402Z,38.83
2023-01-26T06:38:56.409Z,38.82
2023-01-26T06:48:58.110Z,38.79
2023-01-26T06:58:59.492Z,38.87
2023-01-26T07:09:00.986Z,38.83
2023-01-26T07:19:02.368Z,38.80
2023-01-26T07:29:03.756Z,38.88
2023-01-26T07:39:08.391Z,38.83
2023-01-26T07:49:11.739Z,38.81
2023-01-26T07:59:13.281Z,38.82
2023-01-26T08:09:14.682Z,38.83
2023-01-26T08:19:16.195Z,38.77
2023-01-26T08:29:18.201Z,38.69
2023-01-26T08:39:19.784Z,38.61
2023-01-26T08:49:21.222Z,38.63
2023-01-26T08:59:22.610Z,38.67
2023-01-26T09:09:24.023Z,38.66
2023-01-26T09:19:25.394Z,38.63
2023-01-26T09:29:26.806Z,38.57
2023-01-26T09:39:28.801Z,38.63
2023-01-26T09:50:08.275Z,38.70
2023-01-26T10:00:20.499Z,38.47
2023-01-26T10:10:26.667Z,38.51
2023-01-26T10:20:35.835Z,38.55
2023-01-26T10:30:37.272Z,38.48
2023-01-26T10:40:45.320Z,38.51
2023-01-26T10:50:47.371Z,38.43
2023-01-26T11:00:48.868Z,38.46
2023-01-26T11:10:53.424Z,38.56
2023-01-26T11:21:06.031Z,38.39
2023-01-26T11:31:32.889Z,38.37
2023-01-26T11:41:53.034Z,38.47
2023-01-26T11:52:00.263Z,38.41
2023-01-26T12:02:15.368Z,38.39
2023-01-26T12:12:50.281Z,38.58
2023-01-26T12:23:02.993Z,38.47
2023-01-26T12:33:04.435Z,38.40
2023-01-26T12:43:30.982Z,38.37
2023-01-26T12:53:58.974Z,38.50
2023-01-26T13:04:04.422Z,38.42
2023-01-26T13:14:27.746Z,38.40
2023-01-26T13:24:29.107Z,38.53
2023-01-26T13:34:41.867Z,38.58
2023-01-26T13:44:46.195Z,38.79
2023-01-26T13:54:47.977Z,38.90
2023-01-26T14:04:51.438Z,39.04
2023-01-26T14:15:02.350Z,39.09
2023-01-26T14:25:07.664Z,39.21
2023-01-26T14:35:22.466Z,39.18
2023-01-26T14:45:33.919Z,39.39
2023-01-26T14:55:36.188Z,39.49
2023-01-26T15:05:38.284Z,39.59
2023-01-26T15:16:07.453Z,39.68
2023-01-26T15:26:27.399Z,39.74
2023-01-26T15:36:51.401Z,39.93
2023-01-26T15:46:52.918Z,40.11
2023-01-26T15:56:54.344Z,40.20
2023-01-26T16:06:55.730Z,40.15
2023-01-26T16:16:57.144Z,40.10
2023-01-26T16:26:58.532Z,40.18
2023-01-26T16:36:59.958Z,40.31
2023-01-26T16:47:01.363Z,40.17
2023-01-26T16:57:02.939Z,40.10
2023-01-26T17:07:04.353Z,40.07
2023-01-26T17:17:05.745Z,39.82
2023-01-26T17:27:07.128Z,39.58
2023-01-26T17:37:08.970Z,39.22
2023-01-26T17:47:10.402Z,39.06
2023-01-26T17:57:11.973Z,39.01
2023-01-26T18:07:13.355Z,38.80
2023-01-26T18:17:14.743Z,38.69
2023-01-26T18:27:16.177Z,38.62
2023-01-26T18:37:17.562Z,38.61
2023-01-26T18:47:19.095Z,38.54
2023-01-26T18:57:20.566Z,38.68
2023-01-26T19:07:21.949Z,38.82
2023-01-26T19:17:23.477Z,38.84
2023-01-26T19:27:24.910Z,39.00
2023-01-26T19:37:26.287Z,39.05
2023-01-26T19:47:27.701Z,39.06
2023-01-26T19:57:31.696Z,39.23
2023-01-26T20:07:33.142Z,39.52
2023-01-26T20:17:34.670Z,39.76
2023-01-26T20:27:36.236Z,39.70
2023-01-26T20:37:37.673Z,39.78
2023-01-26T20:47:40.269Z,39.65
2023-01-26T20:57:41.662Z,39.41
2023-01-26T21:07:43.080Z,39.23
2023-01-26T21:17:44.501Z,38.83
2023-01-26T21:27:45.899Z,38.77
2023-01-26T21:37:47.285Z,38.65
2023-01-26T21:48:11.569Z,38.59
2023-01-26T21:58:32.665Z,38.48
2023-01-26T22:08:34.597Z,38.30
2023-01-26T22:18:36.280Z,38.40
2023-01-26T22:28:37.696Z,38.28
2023-01-26T22:38:39.247Z,38.35
2023-01-26T22:48:40.616Z,38.44
2023-01-26T22:58:56.592Z,38.38
2023-01-26T23:09:00.895Z,38.65
2023-01-26T23:19:02.276Z,38.76
2023-01-26T23:29:03.674Z,38.96
2023-01-26T23:39:05.058Z,39.14
2023-01-26T23:49:06.811Z,39.33
2023-01-26T23:59:08.220Z,39.42
